sensor_id;sensor_type;location;lat;lon;timestamp;P1;durP1;ratioP1;P2;durP2;ratioP2
1533;SDS011;760;48.822;9.304;2023-04-06T04:05:24;4.75;;;4.35;;
1533;SDS011;760;48.822;9.304;2023-04-06T04:07:50;6.03;;;4.22;;
1533;SDS011;760;48.822;9.304;2023-04-06T04:10:17;5.28;;;4.15;;
1533;SDS011;760;48.822;9.304;2023-04-06T04:12:42;4.37;;;3.97;;
1533;SDS011;760;48.822;9.304;2023-04-06T04:15:08;7.80;;;5.27;;
1533;SDS011;760;48.822;9.304;2023-04-06T04:17:34;4.27;;;3.17;;
1533;SDS011;760;48.822;9.304;2023-04-06T04:20:00;5.70;;;5.07;;
1533;SDS011;760;48.822;9.304;2023-04-06T04:22:25;6.27;;;5.33;;
1533;SDS011;760;48.822;9.304;2023-04-06T04:24:52;6.22;;;4.85;;
1533;SDS011;760;48.822;9.304;2023-04-06T04:27:18;5.07;;;4.57;;
1533;SDS011;760;48.822;9.304;2023-04-06T04:29:44;5.90;;;5.40;;
1533;SDS011;760;48.822;9.304;2023-04-06T04:32:09;9.13;;;4.83;;
1533;SDS011;760;48.822;9.304;2023-04-06T04:34:35;7.87;;;4.57;;
1533;SDS011;760;48.822;9.304;2023-04-06T04:37:01;9.60;;;4.30;;
1533;SDS011;760;48.822;9.304;2023-04-06T04:39:26;7.70;;;6.27;;
1533;SDS011;760;48.822;9.304;2023-04-06T04:41:52;7.43;;;6.27;;
1533;SDS011;760;48.822;9.304;2023-04-06T04:44:18;5.28;;;4.78;;
1533;SDS011;760;48.822;9.304;2023-04-06T04:46:44;5.75;;;5.22;;
1533;SDS011;760;48.822;9.304;2023-04-06T04:49:10;7.57;;;5.90;;
1533;SDS011;760;48.822;9.304;2023-04-06T04:51:36;5.83;;;4.40;;
1533;SDS011;760;48.822;9.304;2023-04-06T04:54:01;6.73;;;4.70;;
1533;SDS011;760;48.822;9.304;2023-04-06T04:56:27;7.43;;;4.33;;
1533;SDS011;760;48.822;9.304;2023-04-06T04:58:53;7.03;;;5.65;;
1533;SDS011;760;48.822;9.304;2023-04-06T05:01:19;7.03;;;6.13;;
1533;SDS011;760;48.822;9.304;2023-04-06T05:03:45;5.83;;;3.80;;
1533;SDS011;760;48.822;9.304;2023-04-06T05:06:11;4.43;;;3.28;;
1533;SDS011;760;48.822;9.304;2023-04-06T05:08:37;6.90;;;3.80;;
1533;SDS011;760;48.822;9.304;2023-04-06T05:11:02;4.70;;;4.27;;
1533;SDS011;760;48.822;9.304;2023-04-06T05:13:29;6.07;;;4.97;;
1533;SDS011;760;48.822;9.304;2023-04-06T05:15:56;7.03;;;5.07;;
1533;SDS011;760;48.822;9.304;2023-04-06T05:18:21;6.13;;;5.53;;
1533;SDS011;760;48.822;9.304;2023-04-06T05:20:47;6.90;;;5.40;;
1533;SDS011;760;48.822;9.304;2023-04-06T05:23:13;6.43;;;5.83;;
1533;SDS011;760;48.822;9.304;2023-04-06T05:25:39;5.65;;;5.05;;
1533;SDS011;760;48.822;9.304;2023-04-06T05:28:05;7.93;;;5.03;;
1533;SDS011;760;48.822;9.304;2023-04-06T05:30:31;6.40;;;5.87;;
1533;SDS011;760;48.822;9.304;2023-04-06T05:32:57;5.03;;;4.63;;
1533;SDS011;760;48.822;9.304;2023-04-06T05:35:23;6.75;;;6.15;;
1533;SDS011;760;48.822;9.304;2023-04-06T05:37:49;6.03;;;5.43;;
1533;SDS011;760;48.822;9.304;2023-04-06T05:40:14;5.90;;;5.00;;
1533;SDS011;760;48.822;9.304;2023-04-06T05:42:40;11.23;;;4.90;;
1533;SDS011;760;48.822;9.304;2023-04-06T05:45:07;5.90;;;5.30;;
1533;SDS011;760;48.822;9.304;2023-04-06T05:47:35;5.63;;;5.03;;
1533;SDS011;760;48.822;9.304;2023-04-06T05:50:01;6.10;;;4.47;;
1533;SDS011;760;48.822;9.304;2023-04-06T05:52:27;10.65;;;5.15;;
1533;SDS011;760;48.822;9.304;2023-04-06T05:54:53;5.43;;;4.83;;
1533;SDS011;760;48.822;9.304;2023-04-06T05:57:19;5.18;;;4.68;;
1533;SDS011;760;48.822;9.304;2023-04-06T05:59:44;6.43;;;4.87;;
1533;SDS011;760;48.822;9.304;2023-04-06T06:02:10;11.90;;;6.60;;
1533;SDS011;760;48.822;9.304;2023-04-06T06:04:36;6.77;;;6.13;;
1533;SDS011;760;48.822;9.304;2023-04-06T06:07:01;7.07;;;5.03;;
1533;SDS011;760;48.822;9.304;2023-04-06T06:09:27;5.17;;;4.73;;
1533;SDS011;760;48.822;9.304;2023-04-06T06:11:52;6.10;;;4.47;;
1533;SDS011;760;48.822;9.304;2023-04-06T06:14:18;5.73;;;5.23;;
1533;SDS011;760;48.822;9.304;2023-04-06T06:16:45;5.25;;;4.85;;
1533;SDS011;760;48.822;9.304;2023-04-06T06:19:10;6.07;;;5.40;;
1533;SDS011;760;48.822;9.304;2023-04-06T06:21:36;6.60;;;5.40;;
1533;SDS011;760;48.822;9.304;2023-04-06T06:24:02;8.37;;;6.63;;
1533;SDS011;760;48.822;9.304;2023-04-06T06:26:27;7.00;;;6.30;;
1533;SDS011;760;48.822;9.304;2023-04-06T06:28:53;6.50;;;5.00;;
1533;SDS011;760;48.822;9.304;2023-04-06T06:31:19;5.80;;;5.30;;
1533;SDS011;760;48.822;9.304;2023-04-06T06:33:48;7.10;;;5.60;;
1533;SDS011;760;48.822;9.304;2023-04-06T06:36:16;5.90;;;5.30;;
1533;SDS011;760;48.822;9.304;2023-04-06T06:38:42;6.78;;;5.47;;
1533;SDS011;760;48.822;9.304;2023-04-06T06:41:08;8.33;;;5.97;;
1533;SDS011;760;48.822;9.304;2023-04-06T06:43:34;6.60;;;5.80;;
1533;SDS011;760;48.822;9.304;2023-04-06T06:45:59;6.63;;;6.00;;
1533;SDS011;760;48.822;9.304;2023-04-06T06:48:25;11.27;;;5.60;;
1533;SDS011;760;48.822;9.304;2023-04-06T06:50:51;7.00;;;6.40;;
1533;SDS011;760;48.822;9.304;2023-04-06T06:53:16;7.57;;;5.60;;
1533;SDS011;760;48.822;9.304;2023-04-06T06:55:42;8.70;;;6.20;;
1533;SDS011;760;48.822;9.304;2023-04-06T06:58:09;7.10;;;5.40;;
1533;SDS011;760;48.822;9.304;2023-04-06T07:00:35;5.40;;;4.90;;
1533;SDS011;760;48.822;9.304;2023-04-06T07:03:00;7.73;;;4.73;;
1533;SDS011;760;48.822;9.304;2023-04-06T07:05:26;6.27;;;5.57;;
1533;SDS011;760;48.822;9.304;2023-04-06T07:07:52;5.67;;;5.20;;
1533;SDS011;760;48.822;9.304;2023-04-06T07:10:18;5.70;;;5.18;;
1533;SDS011;760;48.822;9.304;2023-04-06T07:12:43;6.13;;;4.60;;
1533;SDS011;760;48.822;9.304;2023-04-06T07:15:11;6.20;;;5.18;;
1533;SDS011;760;48.822;9.304;2023-04-06T07:17:37;6.40;;;5.67;;
1533;SDS011;760;48.822;9.304;2023-04-06T07:20:03;6.53;;;5.80;;
1533;SDS011;760;48.822;9.304;2023-04-06T07:22:29;6.40;;;5.80;;
1533;SDS011;760;48.822;9.304;2023-04-06T07:24:55;5.47;;;4.97;;
1533;SDS011;760;48.822;9.304;2023-04-06T07:27:21;7.80;;;7.00;;
1533;SDS011;760;48.822;9.304;2023-04-06T07:29:47;7.73;;;6.53;;
1533;SDS011;760;48.822;9.304;2023-04-06T07:32:12;7.23;;;6.53;;
1533;SDS011;760;48.822;9.304;2023-04-06T07:34:38;8.30;;;7.47;;
1533;SDS011;760;48.822;9.304;2023-04-06T07:37:03;6.93;;;6.33;;
1533;SDS011;760;48.822;9.304;2023-04-06T07:39:29;7.87;;;7.03;;
1533;SDS011;760;48.822;9.304;2023-04-06T07:41:55;7.30;;;6.57;;
1533;SDS011;760;48.822;9.304;2023-04-06T07:44:20;6.80;;;6.17;;
1533;SDS011;760;48.822;9.304;2023-04-06T07:46:46;7.03;;;6.33;;
1533;SDS011;760;48.822;9.304;2023-04-06T07:49:12;8.93;;;7.73;;
1533;SDS011;760;48.822;9.304;2023-04-06T07:51:38;7.17;;;6.47;;
1533;SDS011;760;48.822;9.304;2023-04-06T07:54:04;7.10;;;6.50;;
1533;SDS011;760;48.822;9.304;2023-04-06T07:56:29;6.37;;;5.80;;
1533;SDS011;760;48.822;9.304;2023-04-06T07:58:55;7.97;;;7.17;;
1533;SDS011;760;48.822;9.304;2023-04-06T08:01:22;9.93;;;7.30;;
1533;SDS011;760;48.822;9.304;2023-04-06T08:03:47;8.60;;;7.43;;
1533;SDS011;760;48.822;9.304;2023-04-06T08:06:14;7.60;;;6.90;;
1533;SDS011;760;48.822;9.304;2023-04-06T08:08:40;8.77;;;7.33;;
1533;SDS011;760;48.822;9.304;2023-04-06T08:11:06;7.83;;;7.03;;
1533;SDS011;760;48.822;9.304;2023-04-06T08:13:31;8.00;;;7.20;;
1533;SDS011;760;48.822;9.304;2023-04-06T08:15:58;8.60;;;7.60;;
1533;SDS011;760;48.822;9.304;2023-04-06T08:18:24;8.53;;;7.60;;
1533;SDS011;760;48.822;9.304;2023-04-06T08:20:50;9.03;;;8.20;;
1533;SDS011;760;48.822;9.304;2023-04-06T08:23:16;7.50;;;6.80;;
1533;SDS011;760;48.822;9.304;2023-04-06T08:25:42;8.40;;;7.47;;
1533;SDS011;760;48.822;9.304;2023-04-06T08:28:07;8.60;;;7.43;;
1533;SDS011;760;48.822;9.304;2023-04-06T08:30:34;8.30;;;7.50;;
1533;SDS011;760;48.822;9.304;2023-04-06T08:33:00;9.00;;;8.20;;
1533;SDS011;760;48.822;9.304;2023-04-06T08:35:26;9.53;;;7.60;;
1533;SDS011;760;48.822;9.304;2023-04-06T08:37:52;8.53;;;7.73;;
1533;SDS011;760;48.822;9.304;2023-04-06T08:40:18;7.93;;;7.23;;
1533;SDS011;760;48.822;9.304;2023-04-06T08:42:47;8.17;;;7.43;;
1533;SDS011;760;48.822;9.304;2023-04-06T08:45:17;8.20;;;7.40;;
1533;SDS011;760;48.822;9.304;2023-04-06T08:47:46;7.40;;;6.80;;
1533;SDS011;760;48.822;9.304;2023-04-06T08:50:19;7.50;;;6.80;;
1533;SDS011;760;48.822;9.304;2023-04-06T08:52:46;7.63;;;6.93;;
1533;SDS011;760;48.822;9.304;2023-04-06T08:55:14;10.17;;;7.17;;
1533;SDS011;760;48.822;9.304;2023-04-06T08:57:40;8.63;;;7.63;;
1533;SDS011;760;48.822;9.304;2023-04-06T09:00:07;10.60;;;6.87;;
1533;SDS011;760;48.822;9.304;2023-04-06T09:02:37;8.10;;;7.30;;
1533;SDS011;760;48.822;9.304;2023-04-06T09:05:08;8.20;;;7.40;;
1533;SDS011;760;48.822;9.304;2023-04-06T09:07:37;7.87;;;7.07;;
1533;SDS011;760;48.822;9.304;2023-04-06T09:10:04;7.90;;;7.20;;
1533;SDS011;760;48.822;9.304;2023-04-06T09:12:30;7.77;;;7.00;;
1533;SDS011;760;48.822;9.304;2023-04-06T09:14:57;7.87;;;7.10;;
1533;SDS011;760;48.822;9.304;2023-04-06T09:17:27;9.50;;;7.70;;
1533;SDS011;760;48.822;9.304;2023-04-06T09:19:55;7.47;;;6.77;;
1533;SDS011;760;48.822;9.304;2023-04-06T09:22:21;8.30;;;7.60;;
1533;SDS011;760;48.822;9.304;2023-04-06T09:24:49;8.70;;;7.80;;
1533;SDS011;760;48.822;9.304;2023-04-06T09:27:16;7.27;;;6.57;;
1533;SDS011;760;48.822;9.304;2023-04-06T09:29:43;8.30;;;6.60;;
1533;SDS011;760;48.822;9.304;2023-04-06T09:32:09;7.13;;;6.37;;
1533;SDS011;760;48.822;9.304;2023-04-06T09:34:39;10.13;;;7.60;;
1533;SDS011;760;48.822;9.304;2023-04-06T09:37:14;6.70;;;6.20;;
1533;SDS011;760;48.822;9.304;2023-04-06T09:39:41;8.03;;;6.83;;
1533;SDS011;760;48.822;9.304;2023-04-06T09:42:06;7.90;;;6.90;;
1533;SDS011;760;48.822;9.304;2023-04-06T09:44:33;7.03;;;6.33;;
1533;SDS011;760;48.822;9.304;2023-04-06T09:46:58;7.07;;;6.37;;
1533;SDS011;760;48.822;9.304;2023-04-06T09:49:24;6.47;;;5.87;;
1533;SDS011;760;48.822;9.304;2023-04-06T09:51:57;7.07;;;6.37;;
1533;SDS011;760;48.822;9.304;2023-04-06T09:54:26;8.20;;;6.63;;
1533;SDS011;760;48.822;9.304;2023-04-06T09:57:01;7.00;;;6.40;;
1533;SDS011;760;48.822;9.304;2023-04-06T10:02:39;6.47;;;5.93;;
1533;SDS011;760;48.822;9.304;2023-04-06T10:08:02;7.30;;;6.60;;
1533;SDS011;760;48.822;9.304;2023-04-06T10:10:32;8.03;;;6.53;;
1533;SDS011;760;48.822;9.304;2023-04-06T10:12:58;6.97;;;5.90;;
1533;SDS011;760;48.822;9.304;2023-04-06T10:15:24;8.40;;;6.30;;
1533;SDS011;760;48.822;9.304;2023-04-06T10:17:50;8.37;;;6.40;;
1533;SDS011;760;48.822;9.304;2023-04-06T10:20:24;7.07;;;6.37;;
1533;SDS011;760;48.822;9.304;2023-04-06T10:22:53;5.30;;;4.73;;
1533;SDS011;760;48.822;9.304;2023-04-06T10:25:27;6.50;;;5.80;;
1533;SDS011;760;48.822;9.304;2023-04-06T10:27:58;6.17;;;5.60;;
1533;SDS011;760;48.822;9.304;2023-04-06T10:30:25;6.90;;;6.30;;
1533;SDS011;760;48.822;9.304;2023-04-06T10:32:52;6.50;;;5.90;;
1533;SDS011;760;48.822;9.304;2023-04-06T10:35:18;9.03;;;6.10;;
1533;SDS011;760;48.822;9.304;2023-04-06T10:37:48;6.40;;;5.80;;
1533;SDS011;760;48.822;9.304;2023-04-06T10:40:22;6.33;;;5.73;;
1533;SDS011;760;48.822;9.304;2023-04-06T10:42:49;7.47;;;5.80;;
1533;SDS011;760;48.822;9.304;2023-04-06T10:45:25;6.67;;;6.00;;
1533;SDS011;760;48.822;9.304;2023-04-06T10:47:54;6.93;;;5.47;;
1533;SDS011;760;48.822;9.304;2023-04-06T10:50:20;7.00;;;6.30;;
1533;SDS011;760;48.822;9.304;2023-04-06T10:52:47;6.60;;;5.87;;
1533;SDS011;760;48.822;9.304;2023-04-06T10:55:27;8.30;;;6.53;;
1533;SDS011;760;48.822;9.304;2023-04-06T10:57:54;7.43;;;6.13;;
1533;SDS011;760;48.822;9.304;2023-04-06T11:00:20;6.50;;;5.90;;
1533;SDS011;760;48.822;9.304;2023-04-06T11:02:46;6.90;;;6.20;;
1533;SDS011;760;48.822;9.304;2023-04-06T11:05:12;7.63;;;6.93;;
1533;SDS011;760;48.822;9.304;2023-04-06T11:07:39;7.70;;;6.50;;
1533;SDS011;760;48.822;9.304;2023-04-06T11:10:06;6.73;;;6.03;;
1533;SDS011;760;48.822;9.304;2023-04-06T11:12:33;8.80;;;6.60;;
1533;SDS011;760;48.822;9.304;2023-04-06T11:15:00;6.27;;;5.67;;
1533;SDS011;760;48.822;9.304;2023-04-06T11:17:33;6.57;;;5.93;;
1533;SDS011;760;48.822;9.304;2023-04-06T11:20:02;8.93;;;6.20;;
1533;SDS011;760;48.822;9.304;2023-04-06T11:22:29;6.90;;;5.43;;
1533;SDS011;760;48.822;9.304;2023-04-06T11:25:07;7.63;;;5.53;;
1533;SDS011;760;48.822;9.304;2023-04-06T11:27:34;5.97;;;5.37;;
1533;SDS011;760;48.822;9.304;2023-04-06T11:30:01;5.70;;;4.37;;
1533;SDS011;760;48.822;9.304;2023-04-06T11:32:28;6.23;;;4.50;;
1533;SDS011;760;48.822;9.304;2023-04-06T11:34:54;5.30;;;4.80;;
1533;SDS011;760;48.822;9.304;2023-04-06T11:37:25;6.20;;;4.70;;
1533;SDS011;760;48.822;9.304;2023-04-06T11:39:54;5.40;;;4.20;;
1533;SDS011;760;48.822;9.304;2023-04-06T11:42:29;4.60;;;3.60;;
1533;SDS011;760;48.822;9.304;2023-04-06T11:44:55;4.67;;;4.27;;
1533;SDS011;760;48.822;9.304;2023-04-06T11:47:28;5.30;;;4.37;;
1533;SDS011;760;48.822;9.304;2023-04-06T11:49:55;4.07;;;3.57;;
1533;SDS011;760;48.822;9.304;2023-04-06T11:52:27;5.67;;;3.80;;
1533;SDS011;760;48.822;9.304;2023-04-06T11:54:54;5.23;;;4.73;;
1533;SDS011;760;48.822;9.304;2023-04-06T11:57:22;5.10;;;4.47;;
1533;SDS011;760;48.822;9.304;2023-04-06T11:59:51;4.80;;;4.27;;
1533;SDS011;760;48.822;9.304;2023-04-06T12:02:17;4.10;;;3.20;;
1533;SDS011;760;48.822;9.304;2023-04-06T12:04:43;5.07;;;4.30;;
1533;SDS011;760;48.822;9.304;2023-04-06T12:07:09;3.43;;;3.13;;
1533;SDS011;760;48.822;9.304;2023-04-06T12:09:35;3.30;;;3.00;;
1533;SDS011;760;48.822;9.304;2023-04-06T12:12:01;4.60;;;3.63;;
1533;SDS011;760;48.822;9.304;2023-04-06T12:14:27;4.00;;;3.70;;
1533;SDS011;760;48.822;9.304;2023-04-06T12:16:53;5.30;;;4.20;;
1533;SDS011;760;48.822;9.304;2023-04-06T12:19:19;4.43;;;3.60;;
1533;SDS011;760;48.822;9.304;2023-04-06T12:21:45;3.90;;;3.27;;
1533;SDS011;760;48.822;9.304;2023-04-06T12:24:11;3.47;;;3.20;;
1533;SDS011;760;48.822;9.304;2023-04-06T12:26:36;5.20;;;4.13;;
1533;SDS011;760;48.822;9.304;2023-04-06T12:29:02;4.50;;;3.73;;
1533;SDS011;760;48.822;9.304;2023-04-06T12:31:32;5.80;;;4.17;;
1533;SDS011;760;48.822;9.304;2023-04-06T12:33:59;3.63;;;3.33;;
1533;SDS011;760;48.822;9.304;2023-04-06T12:36:26;3.60;;;2.97;;
1533;SDS011;760;48.822;9.304;2023-04-06T12:38:52;5.97;;;3.60;;
1533;SDS011;760;48.822;9.304;2023-04-06T12:41:18;3.67;;;2.90;;
1533;SDS011;760;48.822;9.304;2023-04-06T12:43:45;4.10;;;3.17;;
1533;SDS011;760;48.822;9.304;2023-04-06T12:46:11;6.30;;;4.40;;
1533;SDS011;760;48.822;9.304;2023-04-06T12:48:38;4.27;;;3.77;;
1533;SDS011;760;48.822;9.304;2023-04-06T12:51:04;4.37;;;3.40;;
1533;SDS011;760;48.822;9.304;2023-04-06T12:53:32;4.10;;;3.70;;
1533;SDS011;760;48.822;9.304;2023-04-06T12:55:58;4.07;;;3.67;;
1533;SDS011;760;48.822;9.304;2023-04-06T12:58:24;4.13;;;3.73;;
1533;SDS011;760;48.822;9.304;2023-04-06T13:00:54;3.97;;;3.37;;
1533;SDS011;760;48.822;9.304;2023-04-06T13:03:21;5.27;;;4.17;;
1533;SDS011;760;48.822;9.304;2023-04-06T13:05:47;7.07;;;3.13;;
1533;SDS011;760;48.822;9.304;2023-04-06T13:08:14;3.70;;;3.40;;
1533;SDS011;760;48.822;9.304;2023-04-06T13:10:43;2.77;;;2.57;;
1533;SDS011;760;48.822;9.304;2023-04-06T13:13:09;6.20;;;3.20;;
1533;SDS011;760;48.822;9.304;2023-04-06T13:15:35;4.53;;;3.47;;
1533;SDS011;760;48.822;9.304;2023-04-06T13:18:01;4.90;;;3.30;;
1533;SDS011;760;48.822;9.304;2023-04-06T13:20:27;4.07;;;3.63;;
1533;SDS011;760;48.822;9.304;2023-04-06T13:22:53;4.27;;;3.83;;
1533;SDS011;760;48.822;9.304;2023-04-06T13:25:19;3.53;;;3.23;;
1533;SDS011;760;48.822;9.304;2023-04-06T13:27:46;3.73;;;3.43;;
1533;SDS011;760;48.822;9.304;2023-04-06T13:30:13;3.77;;;2.97;;
1533;SDS011;760;48.822;9.304;2023-04-06T13:32:39;4.20;;;3.57;;
1533;SDS011;760;48.822;9.304;2023-04-06T13:35:05;3.43;;;3.23;;
1533;SDS011;760;48.822;9.304;2023-04-06T13:37:34;4.10;;;3.70;;
1533;SDS011;760;48.822;9.304;2023-04-06T13:40:00;5.00;;;3.30;;
1533;SDS011;760;48.822;9.304;2023-04-06T13:42:27;5.30;;;3.70;;
1533;SDS011;760;48.822;9.304;2023-04-06T13:44:53;4.77;;;3.33;;
1533;SDS011;760;48.822;9.304;2023-04-06T13:47:20;4.50;;;4.07;;
1533;SDS011;760;48.822;9.304;2023-04-06T13:49:46;6.50;;;4.80;;
1533;SDS011;760;48.822;9.304;2023-04-06T13:52:12;3.93;;;3.27;;
1533;SDS011;760;48.822;9.304;2023-04-06T13:54:38;3.97;;;3.10;;
1533;SDS011;760;48.822;9.304;2023-04-06T13:57:03;4.93;;;3.20;;
1533;SDS011;760;48.822;9.304;2023-04-06T13:59:36;4.03;;;3.60;;
1533;SDS011;760;48.822;9.304;2023-04-06T14:02:02;4.00;;;3.70;;
1533;SDS011;760;48.822;9.304;2023-04-06T14:04:28;3.77;;;3.47;;
1533;SDS011;760;48.822;9.304;2023-04-06T14:06:54;3.80;;;3.50;;
1533;SDS011;760;48.822;9.304;2023-04-06T14:09:20;5.63;;;3.60;;
1533;SDS011;760;48.822;9.304;2023-04-06T14:11:46;3.80;;;3.50;;
1533;SDS011;760;48.822;9.304;2023-04-06T14:14:11;4.67;;;3.60;;
1533;SDS011;760;48.822;9.304;2023-04-06T14:16:37;3.60;;;3.30;;
1533;SDS011;760;48.822;9.304;2023-04-06T14:19:03;3.93;;;3.50;;
1533;SDS011;760;48.822;9.304;2023-04-06T14:21:29;4.00;;;3.60;;
1533;SDS011;760;48.822;9.304;2023-04-06T14:23:54;5.10;;;3.60;;
1533;SDS011;760;48.822;9.304;2023-04-06T14:26:21;5.50;;;3.50;;
1533;SDS011;760;48.822;9.304;2023-04-06T14:28:47;3.23;;;2.87;;
1533;SDS011;760;48.822;9.304;2023-04-06T14:31:14;4.00;;;3.70;;
1533;SDS011;760;48.822;9.304;2023-04-06T14:33:41;3.07;;;2.80;;
1533;SDS011;760;48.822;9.304;2023-04-06T14:36:07;5.30;;;3.53;;
1533;SDS011;760;48.822;9.304;2023-04-06T14:38:33;7.47;;;4.07;;
1533;SDS011;760;48.822;9.304;2023-04-06T14:40:59;4.77;;;3.70;;
1533;SDS011;760;48.822;9.304;2023-04-06T14:43:25;4.07;;;3.77;;
1533;SDS011;760;48.822;9.304;2023-04-06T14:45:51;4.97;;;3.27;;
1533;SDS011;760;48.822;9.304;2023-04-06T14:48:17;4.20;;;3.20;;
1533;SDS011;760;48.822;9.304;2023-04-06T14:50:53;5.20;;;4.20;;
1533;SDS011;760;48.822;9.304;2023-04-06T14:53:19;6.10;;;3.87;;
1533;SDS011;760;48.822;9.304;2023-04-06T14:55:46;3.70;;;3.33;;
1533;SDS011;760;48.822;9.304;2023-04-06T14:58:11;3.60;;;3.17;;
1533;SDS011;760;48.822;9.304;2023-04-06T15:00:37;3.97;;;3.00;;
1533;SDS011;760;48.822;9.304;2023-04-06T15:03:03;4.07;;;3.20;;
1533;SDS011;760;48.822;9.304;2023-04-06T15:05:30;5.53;;;3.80;;
1533;SDS011;760;48.822;9.304;2023-04-06T15:07:58;4.10;;;3.40;;
1533;SDS011;760;48.822;9.304;2023-04-06T15:10:24;5.27;;;4.33;;
1533;SDS011;760;48.822;9.304;2023-04-06T15:12:49;5.50;;;4.10;;
1533;SDS011;760;48.822;9.304;2023-04-06T15:15:16;7.53;;;3.53;;
1533;SDS011;760;48.822;9.304;2023-04-06T15:17:41;7.27;;;4.17;;
1533;SDS011;760;48.822;9.304;2023-04-06T15:20:07;4.10;;;3.70;;
1533;SDS011;760;48.822;9.304;2023-04-06T15:22:33;3.63;;;3.30;;
1533;SDS011;760;48.822;9.304;2023-04-06T15:24:58;3.90;;;3.50;;
1533;SDS011;760;48.822;9.304;2023-04-06T15:27:24;5.17;;;3.40;;
1533;SDS011;760;48.822;9.304;2023-04-06T15:29:50;5.43;;;4.20;;
1533;SDS011;760;48.822;9.304;2023-04-06T15:32:15;4.43;;;3.57;;
1533;SDS011;760;48.822;9.304;2023-04-06T15:34:41;3.90;;;2.80;;
1533;SDS011;760;48.822;9.304;2023-04-06T15:37:06;6.50;;;3.63;;
1533;SDS011;760;48.822;9.304;2023-04-06T15:39:33;4.87;;;4.33;;
1533;SDS011;760;48.822;9.304;2023-04-06T15:41:59;3.73;;;3.30;;
1533;SDS011;760;48.822;9.304;2023-04-06T15:44:25;4.47;;;3.67;;
1533;SDS011;760;48.822;9.304;2023-04-06T15:46:51;5.40;;;4.30;;
1533;SDS011;760;48.822;9.304;2023-04-06T15:49:18;7.13;;;4.60;;
1533;SDS011;760;48.822;9.304;2023-04-06T15:51:46;5.07;;;3.60;;
1533;SDS011;760;48.822;9.304;2023-04-06T15:54:12;5.70;;;3.70;;
1533;SDS011;760;48.822;9.304;2023-04-06T15:56:38;3.53;;;3.07;;
1533;SDS011;760;48.822;9.304;2023-04-06T15:59:04;5.87;;;3.97;;
1533;SDS011;760;48.822;9.304;2023-04-06T16:01:29;5.80;;;4.03;;
1533;SDS011;760;48.822;9.304;2023-04-06T16:03:55;3.70;;;3.40;;
1533;SDS011;760;48.822;9.304;2023-04-06T16:06:21;4.90;;;3.63;;
1533;SDS011;760;48.822;9.304;2023-04-06T16:08:47;4.60;;;3.27;;
1533;SDS011;760;48.822;9.304;2023-04-06T16:11:12;4.17;;;3.73;;
1533;SDS011;760;48.822;9.304;2023-04-06T16:13:38;4.07;;;3.67;;
1533;SDS011;760;48.822;9.304;2023-04-06T16:16:04;4.50;;;3.93;;
1533;SDS011;760;48.822;9.304;2023-04-06T16:18:30;4.97;;;4.20;;
1533;SDS011;760;48.822;9.304;2023-04-06T16:20:56;6.60;;;3.40;;
1533;SDS011;760;48.822;9.304;2023-04-06T16:23:22;4.80;;;4.40;;
1533;SDS011;760;48.822;9.304;2023-04-06T16:25:47;5.37;;;4.20;;
1533;SDS011;760;48.822;9.304;2023-04-06T16:28:14;4.33;;;3.63;;
1533;SDS011;760;48.822;9.304;2023-04-06T16:30:40;4.10;;;3.50;;
1533;SDS011;760;48.822;9.304;2023-04-06T16:33:06;5.40;;;3.90;;
1533;SDS011;760;48.822;9.304;2023-04-06T16:35:32;3.77;;;3.00;;
1533;SDS011;760;48.822;9.304;2023-04-06T16:37:58;5.77;;;4.83;;
1533;SDS011;760;48.822;9.304;2023-04-06T16:40:25;4.70;;;3.70;;
1533;SDS011;760;48.822;9.304;2023-04-06T16:42:51;3.40;;;3.10;;
1533;SDS011;760;48.822;9.304;2023-04-06T16:45:16;4.60;;;4.20;;
1533;SDS011;760;48.822;9.304;2023-04-06T16:47:42;6.30;;;4.00;;
1533;SDS011;760;48.822;9.304;2023-04-06T16:50:08;3.67;;;3.37;;
1533;SDS011;760;48.822;9.304;2023-04-06T16:52:34;6.73;;;4.83;;
1533;SDS011;760;48.822;9.304;2023-04-06T16:55:00;3.63;;;3.33;;
1533;SDS011;760;48.822;9.304;2023-04-06T16:57:25;8.00;;;3.60;;
1533;SDS011;760;48.822;9.304;2023-04-06T16:59:56;5.40;;;4.23;;
1533;SDS011;760;48.822;9.304;2023-04-06T17:02:22;6.27;;;4.13;;
1533;SDS011;760;48.822;9.304;2023-04-06T17:04:48;5.10;;;4.40;;
1533;SDS011;760;48.822;9.304;2023-04-06T17:07:14;5.40;;;4.27;;
1533;SDS011;760;48.822;9.304;2023-04-06T17:09:40;5.43;;;3.93;;
1533;SDS011;760;48.822;9.304;2023-04-06T17:12:06;6.10;;;4.87;;
1533;SDS011;760;48.822;9.304;2023-04-06T17:14:33;6.90;;;5.67;;
1533;SDS011;760;48.822;9.304;2023-04-06T17:16:59;5.83;;;4.40;;
1533;SDS011;760;48.822;9.304;2023-04-06T17:19:24;11.30;;;6.60;;
1533;SDS011;760;48.822;9.304;2023-04-06T17:21:51;6.57;;;5.13;;
1533;SDS011;760;48.822;9.304;2023-04-06T17:24:19;6.60;;;5.67;;
1533;SDS011;760;48.822;9.304;2023-04-06T17:26:45;7.90;;;5.30;;
1533;SDS011;760;48.822;9.304;2023-04-06T17:29:11;11.77;;;6.87;;
1533;SDS011;760;48.822;9.304;2023-04-06T17:31:36;26.03;;;15.77;;
1533;SDS011;760;48.822;9.304;2023-04-06T17:34:02;18.30;;;11.20;;
1533;SDS011;760;48.822;9.304;2023-04-06T17:36:27;6.43;;;4.63;;
1533;SDS011;760;48.822;9.304;2023-04-06T17:38:53;16.87;;;8.90;;
1533;SDS011;760;48.822;9.304;2023-04-06T17:41:19;9.80;;;4.30;;
1533;SDS011;760;48.822;9.304;2023-04-06T17:43:45;11.77;;;6.17;;
1533;SDS011;760;48.822;9.304;2023-04-06T17:46:12;8.63;;;6.10;;
1533;SDS011;760;48.822;9.304;2023-04-06T17:48:37;7.20;;;4.77;;
1533;SDS011;760;48.822;9.304;2023-04-06T17:51:03;17.20;;;10.17;;
1533;SDS011;760;48.822;9.304;2023-04-06T17:53:29;9.07;;;7.00;;
1533;SDS011;760;48.822;9.304;2023-04-06T17:55:56;21.05;;;14.10;;
1533;SDS011;760;48.822;9.304;2023-04-06T17:58:22;8.65;;;7.18;;
1533;SDS011;760;48.822;9.304;2023-04-06T18:00:48;10.03;;;5.70;;
1533;SDS011;760;48.822;9.304;2023-04-06T18:03:13;4.70;;;2.93;;
1533;SDS011;760;48.822;9.304;2023-04-06T18:05:39;3.60;;;3.30;;
1533;SDS011;760;48.822;9.304;2023-04-06T18:08:05;3.80;;;3.07;;
1533;SDS011;760;48.822;9.304;2023-04-06T18:10:31;9.13;;;5.67;;
1533;SDS011;760;48.822;9.304;2023-04-06T18:13:00;5.95;;;3.83;;
1533;SDS011;760;48.822;9.304;2023-04-06T18:15:26;4.47;;;3.73;;
1533;SDS011;760;48.822;9.304;2023-04-06T18:17:51;4.87;;;3.40;;
1533;SDS011;760;48.822;9.304;2023-04-06T18:20:17;3.77;;;2.50;;
1533;SDS011;760;48.822;9.304;2023-04-06T18:22:43;3.63;;;3.30;;
1533;SDS011;760;48.822;9.304;2023-04-06T18:25:08;4.37;;;3.80;;
1533;SDS011;760;48.822;9.304;2023-04-06T18:27:34;3.67;;;3.10;;
1533;SDS011;760;48.822;9.304;2023-04-06T18:30:00;5.60;;;3.67;;
1533;SDS011;760;48.822;9.304;2023-04-06T18:32:26;3.73;;;3.37;;
1533;SDS011;760;48.822;9.304;2023-04-06T18:34:55;7.57;;;3.80;;
1533;SDS011;760;48.822;9.304;2023-04-06T18:37:22;5.67;;;3.70;;
1533;SDS011;760;48.822;9.304;2023-04-06T18:39:50;3.85;;;3.10;;
1533;SDS011;760;48.822;9.304;2023-04-06T18:42:17;3.95;;;3.38;;
1533;SDS011;760;48.822;9.304;2023-04-06T18:44:43;3.70;;;2.83;;
1533;SDS011;760;48.822;9.304;2023-04-06T18:47:12;4.88;;;3.40;;
1533;SDS011;760;48.822;9.304;2023-04-06T18:49:38;5.03;;;3.60;;
1533;SDS011;760;48.822;9.304;2023-04-06T18:52:04;4.17;;;3.67;;
1533;SDS011;760;48.822;9.304;2023-04-06T18:54:30;3.90;;;3.53;;
1533;SDS011;760;48.822;9.304;2023-04-06T18:56:56;6.70;;;4.70;;
1533;SDS011;760;48.822;9.304;2023-04-06T18:59:21;3.87;;;3.43;;
1533;SDS011;760;48.822;9.304;2023-04-06T19:01:47;3.97;;;3.57;;
1533;SDS011;760;48.822;9.304;2023-04-06T19:04:17;3.85;;;3.50;;
1533;SDS011;760;48.822;9.304;2023-04-06T19:06:44;3.78;;;3.33;;
1533;SDS011;760;48.822;9.304;2023-04-06T19:09:10;5.27;;;4.50;;
1533;SDS011;760;48.822;9.304;2023-04-06T19:11:36;4.17;;;3.87;;
1533;SDS011;760;48.822;9.304;2023-04-06T19:14:01;4.27;;;3.50;;
1533;SDS011;760;48.822;9.304;2023-04-06T19:16:27;3.70;;;3.40;;
1533;SDS011;760;48.822;9.304;2023-04-06T19:18:53;5.00;;;3.97;;
1533;SDS011;760;48.822;9.304;2023-04-06T19:21:20;4.45;;;3.70;;
1533;SDS011;760;48.822;9.304;2023-04-06T19:23:48;3.10;;;2.90;;
1533;SDS011;760;48.822;9.304;2023-04-06T19:26:15;2.83;;;2.72;;
1533;SDS011;760;48.822;9.304;2023-04-06T19:28:42;3.58;;;3.28;;
1533;SDS011;760;48.822;9.304;2023-04-06T19:31:09;4.28;;;2.80;;
1533;SDS011;760;48.822;9.304;2023-04-06T19:33:37;3.35;;;3.00;;
1533;SDS011;760;48.822;9.304;2023-04-06T19:36:03;2.85;;;2.60;;